Luminous Kobe-2 — JJ3868 — position and weather

sailwx.info

Track history (hours):
 
Tides and Currents Weather Stations Pressure Air Temp Water Temp Dewpoint Dewpoint Depression Visibility Wind Speed Wind Dir Waves Ship Positions

Luminous Kobe-2

Last reported at 2017-Aug-19 01:25 UTC. Time now 2017-Aug-19 01:56 UTC.
Position N 34°41' E 135°11'.

Length 105 m; draft 4.4 m.

Type: Passenger vessel. MMSI: 431000469.

Date/timePositionNaut miles runAvg speedWind from/ knotsBaromVisibWave heightAir tempDewpointWater temp
2017-Aug-19 01:25N 34°41' E 135°11'0 0.0
2017-Aug-19 00:55N 34°41' E 135°11'0 0.0
2017-Aug-19 00:30N 34°41' E 135°11'0 0.0
2017-Aug-19 00:00N 34°41' E 135°11'0 0.0
2017-Aug-18 23:30N 34°41' E 135°11'0 0.0
2017-Aug-18 23:00N 34°41' E 135°11'0 0.0
2017-Aug-18 22:30N 34°41' E 135°11'0 0.0
2017-Aug-18 22:00N 34°41' E 135°11'0 0.0
2017-Aug-18 21:30N 34°41' E 135°11'0 0.0
2017-Aug-18 21:00N 34°41' E 135°11'0 0.0
2017-Aug-18 20:30N 34°41' E 135°11'0 0.0
2017-Aug-18 20:00N 34°41' E 135°11'0 0.0
2017-Aug-18 19:30N 34°41' E 135°11'0 0.0
2017-Aug-18 19:00N 34°41' E 135°11'0 0.0
2017-Aug-18 18:30N 34°41' E 135°11'0 0.0
2017-Aug-18 18:00N 34°41' E 135°11'0 0.0
2017-Aug-18 17:30N 34°41' E 135°11'0 0.0
2017-Aug-18 17:00N 34°41' E 135°11'0 0.0
2017-Aug-18 16:30N 34°41' E 135°11'0 0.0
2017-Aug-18 16:00N 34°41' E 135°11'0 0.0
2017-Aug-18 15:30N 34°41' E 135°11'0 0.0
2017-Aug-18 15:00N 34°41' E 135°11'0 0.0
2017-Aug-18 14:30N 34°41' E 135°11'0 0.0
2017-Aug-18 13:30N 34°41' E 135°11'0 0.0
2017-Aug-18 13:00N 34°41' E 135°11'0 0.0
2017-Aug-18 12:30N 34°41' E 135°11'1 2.8
2017-Aug-18 11:59N 34°39' E 135°11'613.2
2017-Aug-18 11:30N 34°35' E 135°06'511.0
2017-Aug-18 11:00N 34°38' E 134°60'612.5
2017-Aug-18 10:30N 34°37' E 135°07'510.4
2017-Aug-18 10:00N 34°41' E 135°11'0 0.0
2017-Aug-18 09:30N 34°41' E 135°11'1 2.5
2017-Aug-18 09:00N 34°40' E 135°11'4 8.2
2017-Aug-18 08:30N 34°38' E 135°07'5 9.5
2017-Aug-18 08:00N 34°41' E 135°11'0 0.1
2017-Aug-18 07:30N 34°41' E 135°11'0 0.0
2017-Aug-18 07:00N 34°41' E 135°11'0 0.0
2017-Aug-18 06:30N 34°41' E 135°11'0 0.0
2017-Aug-18 06:00N 34°41' E 135°11'0 0.0
2017-Aug-18 05:30N 34°41' E 135°11'0 0.0
2017-Aug-18 05:00N 34°41' E 135°11'2 5.0
2017-Aug-18 04:31N 34°38' E 135°11'4 7.5
2017-Aug-18 04:00N 34°37' E 135°07'5 9.2
2017-Aug-18 03:30N 34°38' E 135°12'3 6.4
2017-Aug-18 02:59N 34°41' E 135°11'0 0.0
2017-Aug-18 02:23N 34°41' E 135°11'0 0.0
2017-Aug-18 01:59N 34°41' E 135°11'0 0.0
2017-Aug-18 01:29N 34°41' E 135°11'0 0.0
2017-Aug-18 00:59N 34°41' E 135°11'0 0.0
2017-Aug-18 00:29N 34°41' E 135°11'0 0.0
2017-Aug-17 23:59N 34°41' E 135°11'0 0.0
2017-Aug-17 23:29N 34°41' E 135°11'0 0.0
2017-Aug-17 22:47N 34°41' E 135°11'0 0.0
2017-Aug-17 22:29N 34°41' E 135°11'0 0.0
2017-Aug-17 21:59N 34°41' E 135°11'0 0.0
2017-Aug-17 21:30N 34°41' E 135°11'0 0.0
2017-Aug-17 21:00N 34°41' E 135°11'0 0.0
2017-Aug-17 20:30N 34°41' E 135°11'0 0.0
2017-Aug-17 20:00N 34°41' E 135°11'0 0.0
2017-Aug-17 19:30N 34°41' E 135°11'0 0.0
2017-Aug-17 19:00N 34°41' E 135°11'0 0.0
2017-Aug-17 18:30N 34°41' E 135°11'0 0.0
2017-Aug-17 18:00N 34°41' E 135°11'0 0.0
2017-Aug-17 17:30N 34°41' E 135°11'0 0.0
2017-Aug-17 17:00N 34°41' E 135°11'0 0.0
2017-Aug-17 16:30N 34°41' E 135°11'0 0.0
2017-Aug-17 16:00N 34°41' E 135°11'0 0.0
2017-Aug-17 15:30N 34°41' E 135°11'0 0.0
2017-Aug-17 15:00N 34°41' E 135°11'0 0.0
2017-Aug-17 14:30N 34°41' E 135°11'0 0.0
2017-Aug-17 14:00N 34°41' E 135°11'0 0.0
2017-Aug-17 13:30N 34°41' E 135°11'0 0.0
2017-Aug-17 13:00N 34°41' E 135°11'0 0.0
2017-Aug-17 12:30N 34°41' E 135°11'1 2.5
2017-Aug-17 12:00N 34°40' E 135°11'611.4
2017-Aug-17 11:30N 34°36' E 135°06'612.9
2017-Aug-17 11:00N 34°37' E 134°59'714.2
2017-Aug-17 10:30N 34°37' E 135°08'5 9.3
2017-Aug-17 10:00N 34°41' E 135°11'0 0.0
2017-Aug-17 09:30N 34°41' E 135°11'1 2.7
2017-Aug-17 09:00N 34°39' E 135°11'4 8.2
2017-Aug-17 08:30N 34°37' E 135°07'5 9.8
2017-Aug-17 08:00N 34°41' E 135°11'0 0.0
2017-Aug-17 07:30N 34°41' E 135°11'0 0.0
2017-Aug-17 07:00N 34°41' E 135°11'0 0.0
2017-Aug-17 06:30N 34°41' E 135°11'0 0.0
2017-Aug-17 06:00N 34°41' E 135°11'0 0.0
2017-Aug-17 05:29N 34°41' E 135°11'0 0.0
2017-Aug-17 05:00N 34°41' E 135°11'3 5.3
2017-Aug-17 04:30N 34°38' E 135°10'3 6.5
2017-Aug-17 04:00N 34°36' E 135°07'4 8.6
2017-Aug-17 03:30N 34°38' E 135°12'3 6.8
2017-Aug-17 03:00N 34°41' E 135°11'0 0.0
2017-Aug-17 02:30N 34°41' E 135°11'0 0.0
2017-Aug-17 02:00N 34°41' E 135°11'0 0.0
2017-Aug-17 01:30N 34°41' E 135°11'0 0.0
2017-Aug-17 01:00N 34°41' E 135°11'0 0.0
2017-Aug-17 00:30N 34°41' E 135°11'0 0.0
2017-Aug-17 00:00N 34°41' E 135°11'0 0.0
2017-Aug-16 23:30N 34°41' E 135°11'0 0.0
2017-Aug-16 23:00N 34°41' E 135°11'0 0.0
2017-Aug-16 22:30N 34°41' E 135°11'0 0.0
2017-Aug-16 22:00N 34°41' E 135°11'0 0.0
2017-Aug-16 21:30N 34°41' E 135°11'0 0.0
2017-Aug-16 21:00N 34°41' E 135°11'0 0.0
2017-Aug-16 20:30N 34°41' E 135°11'0 0.0
2017-Aug-16 20:00N 34°41' E 135°11'0 0.0
2017-Aug-16 19:30N 34°41' E 135°11'0 0.0
2017-Aug-16 19:00N 34°41' E 135°11'0 0.0
2017-Aug-16 18:30N 34°41' E 135°11'0 0.0
2017-Aug-16 18:00N 34°41' E 135°11'0 0.0
2017-Aug-16 17:29N 34°41' E 135°11'0 0.0
2017-Aug-16 17:00N 34°41' E 135°11'0 0.0
2017-Aug-16 16:30N 34°41' E 135°11'0 0.0
2017-Aug-16 16:00N 34°41' E 135°11'0 0.0
2017-Aug-16 15:30N 34°41' E 135°11'0 0.0
2017-Aug-16 15:00N 34°41' E 135°11'0 0.0
2017-Aug-16 14:30N 34°41' E 135°11'0 0.0
2017-Aug-16 14:00N 34°41' E 135°11'0 0.0
2017-Aug-16 13:30N 34°41' E 135°11'0 0.0
2017-Aug-16 13:00N 34°41' E 135°11'0 0.0
2017-Aug-16 12:30N 34°41' E 135°11'1 2.8
2017-Aug-16 12:00N 34°39' E 135°11'611.3
2017-Aug-16 11:30N 34°36' E 135°06'612.2
2017-Aug-16 11:00N 34°38' E 134°59'612.9
2017-Aug-16 10:30N 34°37' E 135°07'510.2
2017-Aug-16 10:00N 34°41' E 135°11'0 0.0
2017-Aug-16 09:30N 34°41' E 135°11'1 2.3
2017-Aug-16 09:00N 34°40' E 135°12'4 8.5
2017-Aug-16 08:30N 34°37' E 135°07'5 9.6
2017-Aug-16 08:00N 34°41' E 135°11'0 0.0
2017-Aug-16 07:31N 34°41' E 135°11'0 0.0
2017-Aug-16 06:41N 34°41' E 135°11'0 0.0
2017-Aug-16 06:29N 34°41' E 135°11'0 0.0
2017-Aug-16 05:59N 34°41' E 135°11'0 0.0
2017-Aug-16 05:29N 34°41' E 135°11'0 0.0
2017-Aug-16 05:00N 34°41' E 135°11'3 5.3
2017-Aug-16 04:30N 34°38' E 135°11'4 7.0
2017-Aug-16 04:00N 34°37' E 135°07'5 9.9
2017-Aug-16 03:31N 34°38' E 135°12'3 6.7
2017-Aug-16 03:00N 34°41' E 135°11'0 0.0
2017-Aug-16 02:26N 34°41' E 135°11'0 0.0
2017-Aug-16 01:56N 34°41' E 135°11'0 0.0
2017-Aug-16 01:02N 34°41' E 135°11'0 0.0
2017-Aug-16 00:56N 34°41' E 135°11'0 0.0
2017-Aug-16 00:26N 34°41' E 135°11'0 0.0
2017-Aug-15 23:56N 34°41' E 135°11'0 0.0
2017-Aug-15 23:20N 34°41' E 135°11'0 0.0
2017-Aug-15 22:38N 34°41' E 135°11'0 0.0
2017-Aug-15 22:20N 34°41' E 135°11'0 0.0
2017-Aug-15 21:56N 34°41' E 135°11'0 0.0
2017-Aug-15 21:26N 34°41' E 135°11'0 0.0
2017-Aug-15 20:56N 34°41' E 135°11'0 0.0
2017-Aug-15 20:26N 34°41' E 135°11'0 0.0
2017-Aug-15 19:56N 34°41' E 135°11'0 0.0
2017-Aug-15 19:26N 34°41' E 135°11'0 0.0
2017-Aug-15 18:56N 34°41' E 135°11'0 0.0
2017-Aug-15 18:26N 34°41' E 135°11'0 0.0
2017-Aug-15 17:56N 34°41' E 135°11'0 0.0
2017-Aug-15 17:26N 34°41' E 135°11'0 0.0
2017-Aug-15 16:56N 34°41' E 135°11'0 0.0
2017-Aug-15 16:20N 34°41' E 135°11'0 0.0
2017-Aug-15 15:56N 34°41' E 135°11'0 0.0
2017-Aug-15 15:26N 34°41' E 135°11'0 0.0
2017-Aug-15 14:50N 34°41' E 135°11'0 0.0
2017-Aug-15 14:20N 34°41' E 135°11'0 0.0
2017-Aug-15 13:56N 34°41' E 135°11'0 0.0
2017-Aug-15 13:26N 34°41' E 135°11'0 0.0
2017-Aug-15 12:56N 34°41' E 135°11'0 0.0
2017-Aug-15 12:30N 34°41' E 135°11'1 2.8
2017-Aug-15 12:00N 34°39' E 135°11'612.1
2017-Aug-15 11:30N 34°35' E 135°06'510.8
2017-Aug-15 11:00N 34°37' E 134°60'612.8
2017-Aug-15 10:30N 34°37' E 135°07'510.0
2017-Aug-15 10:00N 34°41' E 135°11'0 0.0
2017-Aug-15 09:30N 34°41' E 135°11'1 2.3
2017-Aug-15 09:00N 34°40' E 135°12'4 8.2
2017-Aug-15 08:30N 34°37' E 135°07'5 9.4
2017-Aug-15 08:00N 34°41' E 135°11'0 0.0
2017-Aug-15 07:30N 34°41' E 135°11'0 0.0
2017-Aug-15 07:00N 34°41' E 135°11'0 0.0
2017-Aug-15 06:30N 34°41' E 135°11'0 0.0
2017-Aug-15 06:00N 34°41' E 135°11'0 0.0
2017-Aug-15 05:30N 34°41' E 135°11'0 0.0
2017-Aug-15 05:00N 34°41' E 135°11'3 5.9
2017-Aug-15 04:30N 34°38' E 135°10'3 6.4
2017-Aug-15 04:00N 34°36' E 135°07'5 9.0
2017-Aug-15 03:30N 34°38' E 135°12'3 6.6
2017-Aug-15 02:59N 34°41' E 135°11'0 0.0
2017-Aug-15 02:29N 34°41' E 135°11'0 0.0
2017-Aug-15 01:53N 34°41' E 135°11'0 0.0
2017-Aug-15 01:30N 34°41' E 135°11'0 0.0
2017-Aug-15 01:00N 34°41' E 135°11'0 0.0
2017-Aug-15 00:30N 34°41' E 135°11'0 0.0
2017-Aug-15 00:00N 34°41' E 135°11'0 0.0
2017-Aug-14 23:30N 34°41' E 135°11'0 0.0
2017-Aug-14 23:00N 34°41' E 135°11'0 0.0
2017-Aug-14 22:30N 34°41' E 135°11'0 0.0
2017-Aug-14 22:00N 34°41' E 135°11'0 0.0
2017-Aug-14 21:30N 34°41' E 135°11'0 0.0
2017-Aug-14 21:00N 34°41' E 135°11'0 0.0
2017-Aug-14 20:30N 34°41' E 135°11'0 0.0
2017-Aug-14 20:00N 34°41' E 135°11'0 0.0
2017-Aug-14 19:30N 34°41' E 135°11'0 0.0
2017-Aug-14 19:00N 34°41' E 135°11'0 0.0
2017-Aug-14 18:30N 34°41' E 135°11'0 0.0
2017-Aug-14 18:00N 34°41' E 135°11'0 0.0
2017-Aug-14 17:30N 34°41' E 135°11'0 0.0
2017-Aug-14 17:00N 34°41' E 135°11'0 0.0
2017-Aug-14 16:30N 34°41' E 135°11'0 0.0
2017-Aug-14 16:00N 34°41' E 135°11'0 0.0
2017-Aug-14 15:30N 34°41' E 135°11'0 0.0
2017-Aug-14 15:00N 34°41' E 135°11'0 0.0
2017-Aug-14 14:30N 34°41' E 135°11'0 0.0
2017-Aug-14 14:00N 34°41' E 135°11'0 0.0
2017-Aug-14 13:30N 34°41' E 135°11'0 0.0
2017-Aug-14 13:00N 34°41' E 135°11'0 0.0
2017-Aug-14 12:30N 34°41' E 135°11'2 4.3
2017-Aug-14 12:00N 34°39' E 135°11'611.1
2017-Aug-14 11:31N 34°35' E 135°06'510.6
2017-Aug-14 11:01N 34°37' E 135°00'612.4
2017-Aug-14 10:30N 34°37' E 135°08'5 9.3
2017-Aug-14 10:00N 34°41' E 135°11'0 0.0
2017-Aug-14 09:30N 34°41' E 135°11'1 2.5
2017-Aug-14 09:00N 34°40' E 135°11'4 8.0
2017-Aug-14 08:31N 34°37' E 135°08'5 9.4
2017-Aug-14 08:00N 34°41' E 135°11'0 0.0
2017-Aug-14 07:17N 34°41' E 135°11'0 0.0
2017-Aug-14 06:59N 34°41' E 135°11'0 0.0
2017-Aug-14 06:23N 34°41' E 135°11'0 0.0
2017-Aug-14 05:59N 34°41' E 135°11'0 0.0
2017-Aug-14 05:29N 34°41' E 135°11'0 0.0
2017-Aug-14 05:00N 34°41' E 135°11'3 5.6
2017-Aug-14 04:30N 34°38' E 135°10'4 7.1
2017-Aug-14 04:00N 34°37' E 135°06'510.2
2017-Aug-14 03:30N 34°37' E 135°12'4 7.0
2017-Aug-14 03:00N 34°41' E 135°11'0 0.0
2017-Aug-14 02:30N 34°41' E 135°11'0 0.0
2017-Aug-14 02:00N 34°41' E 135°11'0 0.0
2017-Aug-14 01:30N 34°41' E 135°11'0 0.0
2017-Aug-14 01:00N 34°41' E 135°11'0 0.0
2017-Aug-14 00:30N 34°41' E 135°11'0 0.0
2017-Aug-14 00:00N 34°41' E 135°11'0 0.0
2017-Aug-13 23:30N 34°41' E 135°11'0 0.0
2017-Aug-13 23:00N 34°41' E 135°11'0 0.0
2017-Aug-13 22:30N 34°41' E 135°11'0 0.0
2017-Aug-13 22:00N 34°41' E 135°11'0 0.0
2017-Aug-13 21:30N 34°41' E 135°11'0 0.0
2017-Aug-13 21:00N 34°41' E 135°11'0 0.0
2017-Aug-13 20:30N 34°41' E 135°11'0 0.0
2017-Aug-13 20:00N 34°41' E 135°11'0 0.0
2017-Aug-13 19:30N 34°41' E 135°11'0 0.0
2017-Aug-13 19:00N 34°41' E 135°11'0 0.0
2017-Aug-13 18:30N 34°41' E 135°11'0 0.0
2017-Aug-13 18:00N 34°41' E 135°11'0 0.0
2017-Aug-13 17:30N 34°41' E 135°11'0 0.0
2017-Aug-13 17:00N 34°41' E 135°11'0 0.0
2017-Aug-13 16:30N 34°41' E 135°11'0 0.0
2017-Aug-13 16:00N 34°41' E 135°11'0 0.0
2017-Aug-13 15:30N 34°41' E 135°11'0 0.0
2017-Aug-13 15:00N 34°41' E 135°11'0 0.0
2017-Aug-13 14:30N 34°41' E 135°11'0 0.0
2017-Aug-13 14:00N 34°41' E 135°11'0 0.0
2017-Aug-13 13:30N 34°41' E 135°11'0 0.0
2017-Aug-13 13:00N 34°41' E 135°11'0 0.0
2017-Aug-13 12:30N 34°41' E 135°11'1 2.2
2017-Aug-13 12:00N 34°40' E 135°12'611.5
2017-Aug-13 11:30N 34°36' E 135°06'611.8
2017-Aug-13 11:00N 34°38' E 134°59'713.2
2017-Aug-13 10:30N 34°37' E 135°07'510.3
2017-Aug-13 10:00N 34°41' E 135°11'0 0.0
2017-Aug-13 09:26N 34°41' E 135°11'0 0.0
2017-Aug-13 09:00N 34°41' E 135°11'2 4.1
2017-Aug-13 08:30N 34°39' E 135°11'4 9.0
2017-Aug-13 08:00N 34°37' E 135°07'510.7
2017-Aug-13 07:30N 34°37' E 135°13'4 7.2
2017-Aug-13 07:00N 34°41' E 135°11'0 0.0
2017-Aug-13 06:30N 34°41' E 135°11'0 0.0
2017-Aug-13 06:00N 34°41' E 135°11'0 0.0
2017-Aug-13 05:30N 34°41' E 135°11'0 0.0
2017-Aug-13 05:00N 34°41' E 135°11'3 5.0
2017-Aug-13 04:30N 34°38' E 135°11'4 8.3
2017-Aug-13 04:00N 34°36' E 135°06'510.9
2017-Aug-13 03:31N 34°38' E 135°13'3 6.8
2017-Aug-13 03:01N 34°41' E 135°11'0 0.0
2017-Aug-13 02:30N 34°41' E 135°11'0 0.0
2017-Aug-13 02:01N 34°41' E 135°11'0 0.0
2017-Aug-13 01:31N 34°41' E 135°11'0 0.0
2017-Aug-13 01:00N 34°41' E 135°11'0 0.0
2017-Aug-13 00:30N 34°41' E 135°11'0 0.0
2017-Aug-13 00:01N 34°41' E 135°11'0 0.0
2017-Aug-12 23:31N 34°41' E 135°11'0 0.0
2017-Aug-12 23:01N 34°41' E 135°11'0 0.0
2017-Aug-12 22:31N 34°41' E 135°11'0 0.0
2017-Aug-12 22:01N 34°41' E 135°11'0 0.0
2017-Aug-12 21:30N 34°41' E 135°11'0 0.0
2017-Aug-12 21:01N 34°41' E 135°11'0 0.0
2017-Aug-12 20:31N 34°41' E 135°11'0 0.0
2017-Aug-12 20:00N 34°41' E 135°11'0 0.0
2017-Aug-12 19:31N 34°41' E 135°11'0 0.0
2017-Aug-12 19:01N 34°41' E 135°11'0 0.0
2017-Aug-12 18:31N 34°41' E 135°11'0 0.0
2017-Aug-12 18:01N 34°41' E 135°11'0 0.0
2017-Aug-12 17:30N 34°41' E 135°11'0 0.0
2017-Aug-12 17:01N 34°41' E 135°11'0 0.0
2017-Aug-12 16:31N 34°41' E 135°11'0 0.0
2017-Aug-12 16:00N 34°41' E 135°11'0 0.0
2017-Aug-12 15:30N 34°41' E 135°11'0 0.0
2017-Aug-12 15:00N 34°41' E 135°11'0 0.0
2017-Aug-12 14:30N 34°41' E 135°11'0 0.0
2017-Aug-12 14:00N 34°41' E 135°11'0 0.0
2017-Aug-12 13:30N 34°41' E 135°11'0 0.0
2017-Aug-12 13:01N 34°41' E 135°11'0 0.0
2017-Aug-12 12:30N 34°41' E 135°11'1 2.7
2017-Aug-12 12:01N 34°39' E 135°11'612.7
2017-Aug-12 11:30N 34°35' E 135°06'611.2
2017-Aug-12 11:00N 34°37' E 134°59'713.1
2017-Aug-12 10:30N 34°37' E 135°08'5 9.6
2017-Aug-12 10:00N 34°41' E 135°11'0 0.0
2017-Aug-12 09:25N 34°41' E 135°11'0 0.0
2017-Aug-12 09:00N 34°41' E 135°11'2 4.8
2017-Aug-12 08:30N 34°38' E 135°11'3 5.7
2017-Aug-12 08:00N 34°37' E 135°08'4 7.9
2017-Aug-12 07:30N 34°37' E 135°13'4 7.0
2017-Aug-12 07:00N 34°41' E 135°11'0 0.0
2017-Aug-12 06:30N 34°41' E 135°11'0 0.0
2017-Aug-12 05:52N 34°41' E 135°11'0 0.0
2017-Aug-12 05:28N 34°41' E 135°11'0 0.0
2017-Aug-12 05:00N 34°41' E 135°11'3 5.3
2017-Aug-12 04:30N 34°38' E 135°11'4 8.3
2017-Aug-12 04:00N 34°36' E 135°06'5 9.1
2017-Aug-12 03:30N 34°38' E 135°12'3 6.4
2017-Aug-12 03:00N 34°41' E 135°11'0 0.0
2017-Aug-12 02:31N 34°41' E 135°11'0 0.0
2017-Aug-12 01:51N 34°41' E 135°11'0 0.0
2017-Aug-12 01:27N 34°41' E 135°11'0 0.0
2017-Aug-12 00:57N 34°41' E 135°11'0 0.0
2017-Aug-12 00:27N 34°41' E 135°11'0 0.0
2017-Aug-11 23:57N 34°41' E 135°11'0 0.0
2017-Aug-11 23:27N 34°41' E 135°11'0 0.0
2017-Aug-11 22:57N 34°41' E 135°11'0 0.0
2017-Aug-11 22:21N 34°41' E 135°11'0 0.0
2017-Aug-11 21:57N 34°41' E 135°11'0 0.0
2017-Aug-11 21:27N 34°41' E 135°11'0 0.0
2017-Aug-11 20:57N 34°41' E 135°11'0 0.0
2017-Aug-11 20:27N 34°41' E 135°11'0 0.0
2017-Aug-11 19:57N 34°41' E 135°11'0 0.0
2017-Aug-11 19:27N 34°41' E 135°11'0 0.0
2017-Aug-11 18:57N 34°41' E 135°11'0 0.0
2017-Aug-11 18:27N 34°41' E 135°11'0 0.0
2017-Aug-11 17:57N 34°41' E 135°11'0 0.0
2017-Aug-11 17:27N 34°41' E 135°11'0 0.0
2017-Aug-11 16:57N 34°41' E 135°11'0 0.0
2017-Aug-11 16:27N 34°41' E 135°11'0 0.0
2017-Aug-11 15:57N 34°41' E 135°11'0 0.0
2017-Aug-11 15:27N 34°41' E 135°11'0 0.0
2017-Aug-11 14:57N 34°41' E 135°11'0 0.0
2017-Aug-11 13:57N 34°41' E 135°11'0 0.0
2017-Aug-11 13:27N 34°41' E 135°11'0 0.0
2017-Aug-11 12:57N 34°41' E 135°11'0 0.0
2017-Aug-11 12:30N 34°41' E 135°11'1 2.9
2017-Aug-11 12:00N 34°39' E 135°11'713.9
2017-Aug-11 11:30N 34°35' E 135°05'5 9.6
2017-Aug-11 10:57N 34°38' E 134°59'614.3
2017-Aug-11 10:30N 34°37' E 135°07'5 9.9
2017-Aug-11 10:00N 34°41' E 135°11'0 0.0
2017-Aug-11 09:27N 34°41' E 135°11'0 0.0
2017-Aug-11 09:00N 34°41' E 135°11'2 3.7
2017-Aug-11 08:30N 34°39' E 135°11'4 8.0
2017-Aug-11 08:00N 34°37' E 135°07'510.1
2017-Aug-11 07:30N 34°37' E 135°13'4 7.5
2017-Aug-11 07:00N 34°41' E 135°11'0 0.0
2017-Aug-11 06:30N 34°41' E 135°11'0 0.0
2017-Aug-11 05:54N 34°41' E 135°11'0 0.0
2017-Aug-11 05:30N 34°41' E 135°11'0 0.0
2017-Aug-11 05:00N 34°41' E 135°11'3 5.1
2017-Aug-11 04:30N 34°38' E 135°11'4 8.6
2017-Aug-11 04:00N 34°36' E 135°06'5 9.4
2017-Aug-11 03:29N 34°38' E 135°12'3 6.8
2017-Aug-11 03:00N 34°41' E 135°11'0 0.0
2017-Aug-11 02:13N 34°41' E 135°11'0 0.0
2017-Aug-11 01:49N 34°41' E 135°11'0 0.0
2017-Aug-11 01:19N 34°41' E 135°11'0 0.0
2017-Aug-11 01:01N 34°41' E 135°11'0 0.0
2017-Aug-11 00:30N 34°41' E 135°11'0 0.0
2017-Aug-11 00:00N 34°41' E 135°11'0 0.0
2017-Aug-10 23:31N 34°41' E 135°11'0 0.0
2017-Aug-10 23:00N 34°41' E 135°11'0 0.0
2017-Aug-10 22:31N 34°41' E 135°11'0 0.0
2017-Aug-10 22:01N 34°41' E 135°11'0 0.0
2017-Aug-10 21:31N 34°41' E 135°11'0 0.0
2017-Aug-10 21:00N 34°41' E 135°11'0 0.0
2017-Aug-10 20:30N 34°41' E 135°11'0 0.0
2017-Aug-10 20:01N 34°41' E 135°11'0 0.0
2017-Aug-10 19:31N 34°41' E 135°11'0 0.0
2017-Aug-10 19:01N 34°41' E 135°11'0 0.0
2017-Aug-10 18:30N 34°41' E 135°11'0 0.0
2017-Aug-10 18:01N 34°41' E 135°11'0 0.0
2017-Aug-10 17:31N 34°41' E 135°11'0 0.0
2017-Aug-10 17:01N 34°41' E 135°11'0 0.0
2017-Aug-10 16:31N 34°41' E 135°11'0 0.0
2017-Aug-10 16:00N 34°41' E 135°11'0 0.0
2017-Aug-10 15:31N 34°41' E 135°11'0 0.0
2017-Aug-10 15:01N 34°41' E 135°11'0 0.0
2017-Aug-10 14:30N 34°41' E 135°11'0 0.0
2017-Aug-10 14:00N 34°41' E 135°11'0 0.0
2017-Aug-10 13:31N 34°41' E 135°11'0 0.0
2017-Aug-10 13:01N 34°41' E 135°11'0 0.0
2017-Aug-10 12:31N 34°41' E 135°11'2 3.5
2017-Aug-10 12:00N 34°39' E 135°11'714.1
2017-Aug-10 11:31N 34°35' E 135°04'510.5
2017-Aug-10 11:00N 34°37' E 134°58'714.1
2017-Aug-10 10:30N 34°37' E 135°07'5 8.7
2017-Aug-10 09:55N 34°41' E 135°11'0 0.0
2017-Aug-10 09:25N 34°41' E 135°11'1 3.4
2017-Aug-10 09:00N 34°39' E 135°11'4 7.6
2017-Aug-10 08:30N 34°38' E 135°07'5 9.0
2017-Aug-10 08:00N 34°41' E 135°11'0 0.0
2017-Aug-10 07:18N 34°41' E 135°11'0 0.0
2017-Aug-10 07:00N 34°41' E 135°11'0 0.0
2017-Aug-10 06:24N 34°41' E 135°11'0 0.0
2017-Aug-10 06:00N 34°41' E 135°11'0 0.0
2017-Aug-10 05:30N 34°41' E 135°11'0 0.0
2017-Aug-10 05:00N 34°41' E 135°11'3 5.5
2017-Aug-10 04:30N 34°38' E 135°11'4 8.7
2017-Aug-10 04:00N 34°36' E 135°06'611.1
2017-Aug-10 03:30N 34°38' E 135°12'3 6.9
2017-Aug-10 03:00N 34°41' E 135°11'0 0.0
2017-Aug-10 02:30N 34°41' E 135°11'0 0.0
2017-Aug-10 02:00N 34°41' E 135°11'0 0.0
2017-Aug-10 01:30N 34°41' E 135°11'0 0.0
2017-Aug-10 01:00N 34°41' E 135°11'0 0.0
2017-Aug-10 00:30N 34°41' E 135°11'0 0.0
2017-Aug-10 00:00N 34°41' E 135°11'0 0.0
2017-Aug-09 23:30N 34°41' E 135°11'0 0.0
2017-Aug-09 23:00N 34°41' E 135°11'0 0.0
2017-Aug-09 22:30N 34°41' E 135°11'0 0.0
2017-Aug-09 22:00N 34°41' E 135°11'0 0.0
2017-Aug-09 21:30N 34°41' E 135°11'0 0.0
2017-Aug-09 21:00N 34°41' E 135°11'0 0.0
2017-Aug-09 20:30N 34°41' E 135°11'0 0.0
2017-Aug-09 20:00N 34°41' E 135°11'0 0.0
2017-Aug-09 19:30N 34°41' E 135°11'0 0.0
2017-Aug-09 19:00N 34°41' E 135°11'0 0.0
2017-Aug-09 18:30N 34°41' E 135°11'0 0.0
2017-Aug-09 18:00N 34°41' E 135°11'0 0.0
2017-Aug-09 17:30N 34°41' E 135°11'0 0.0
2017-Aug-09 17:00N 34°41' E 135°11'0 0.0
2017-Aug-09 16:30N 34°41' E 135°11'0 0.0
2017-Aug-09 16:00N 34°41' E 135°11'0 0.0
2017-Aug-09 15:30N 34°41' E 135°11'0 0.0
2017-Aug-09 15:00N 34°41' E 135°11'0 0.0
2017-Aug-09 14:30N 34°41' E 135°11'0 0.0
2017-Aug-09 14:00N 34°41' E 135°11'0 0.0
2017-Aug-09 13:30N 34°41' E 135°11'0 0.0
2017-Aug-09 13:00N 34°41' E 135°11'0 0.0
2017-Aug-09 12:30N 34°41' E 135°11'2 3.9
2017-Aug-09 12:00N 34°39' E 135°11'713.2
2017-Aug-09 11:30N 34°35' E 135°05'611.3
2017-Aug-09 11:00N 34°37' E 134°59'714.3
2017-Aug-09 10:30N 34°37' E 135°07'510.1
2017-Aug-09 10:00N 34°41' E 135°11'0 0.0
2017-Aug-09 09:30N 34°41' E 135°11'1 2.4
2017-Aug-09 09:01N 34°40' E 135°12'4 8.3
2017-Aug-09 08:30N 34°37' E 135°07'5 9.6
2017-Aug-09 08:00N 34°41' E 135°11'0 0.0
2017-Aug-09 07:30N 34°41' E 135°11'0 0.0
2017-Aug-09 07:00N 34°41' E 135°11'0 0.0
2017-Aug-09 06:30N 34°41' E 135°11'0 0.0
2017-Aug-09 06:00N 34°41' E 135°11'0 0.0
2017-Aug-09 05:30N 34°41' E 135°11'0 0.0
2017-Aug-09 05:00N 34°41' E 135°11'3 6.0
2017-Aug-09 04:30N 34°38' E 135°10'3 6.3
2017-Aug-09 04:00N 34°37' E 135°07'4 8.3
2017-Aug-09 03:30N 34°38' E 135°12'3 6.5
2017-Aug-09 03:00N 34°41' E 135°11'0 0.0
2017-Aug-09 02:30N 34°41' E 135°11'0 0.0
2017-Aug-09 02:00N 34°41' E 135°11'0 0.0
2017-Aug-09 01:30N 34°41' E 135°11'  
Track history (hours):
 
Tides and Currents Weather Stations Pressure Air Temp Water Temp Dewpoint Dewpoint Depression Visibility Wind Speed Wind Dir Waves Ship Positions

Luminous Kobe-2

Last reported at 2017-Aug-19 01:25 UTC. Time now 2017-Aug-19 01:56 UTC.
Position N 34°41' E 135°11'.

Length 105 m; draft 4.4 m.

Type: Passenger vessel. MMSI: 431000469.

Date/timePositionNaut miles runAvg speedWind from/ knotsBaromVisibWave heightAir tempDewpointWater temp
2017-Aug-19 01:25N 34°41' E 135°11'0 0.0
2017-Aug-19 00:55N 34°41' E 135°11'0 0.0
2017-Aug-19 00:30N 34°41' E 135°11'0 0.0
2017-Aug-19 00:00N 34°41' E 135°11'0 0.0
2017-Aug-18 23:30N 34°41' E 135°11'0 0.0
2017-Aug-18 23:00N 34°41' E 135°11'0 0.0
2017-Aug-18 22:30N 34°41' E 135°11'0 0.0
2017-Aug-18 22:00N 34°41' E 135°11'0 0.0
2017-Aug-18 21:30N 34°41' E 135°11'0 0.0
2017-Aug-18 21:00N 34°41' E 135°11'0 0.0
2017-Aug-18 20:30N 34°41' E 135°11'0 0.0
2017-Aug-18 20:00N 34°41' E 135°11'0 0.0
2017-Aug-18 19:30N 34°41' E 135°11'0 0.0
2017-Aug-18 19:00N 34°41' E 135°11'0 0.0
2017-Aug-18 18:30N 34°41' E 135°11'0 0.0
2017-Aug-18 18:00N 34°41' E 135°11'0 0.0
2017-Aug-18 17:30N 34°41' E 135°11'0 0.0
2017-Aug-18 17:00N 34°41' E 135°11'0 0.0
2017-Aug-18 16:30N 34°41' E 135°11'0 0.0
2017-Aug-18 16:00N 34°41' E 135°11'0 0.0
2017-Aug-18 15:30N 34°41' E 135°11'0 0.0
2017-Aug-18 15:00N 34°41' E 135°11'0 0.0
2017-Aug-18 14:30N 34°41' E 135°11'0 0.0
2017-Aug-18 13:30N 34°41' E 135°11'0 0.0
2017-Aug-18 13:00N 34°41' E 135°11'0 0.0
2017-Aug-18 12:30N 34°41' E 135°11'1 2.8
2017-Aug-18 11:59N 34°39' E 135°11'613.2
2017-Aug-18 11:30N 34°35' E 135°06'511.0
2017-Aug-18 11:00N 34°38' E 134°60'612.5
2017-Aug-18 10:30N 34°37' E 135°07'510.4
2017-Aug-18 10:00N 34°41' E 135°11'0 0.0
2017-Aug-18 09:30N 34°41' E 135°11'1 2.5
2017-Aug-18 09:00N 34°40' E 135°11'4 8.2
2017-Aug-18 08:30N 34°38' E 135°07'5 9.5
2017-Aug-18 08:00N 34°41' E 135°11'0 0.1
2017-Aug-18 07:30N 34°41' E 135°11'0 0.0
2017-Aug-18 07:00N 34°41' E 135°11'0 0.0
2017-Aug-18 06:30N 34°41' E 135°11'0 0.0
2017-Aug-18 06:00N 34°41' E 135°11'0 0.0
2017-Aug-18 05:30N 34°41' E 135°11'0 0.0
2017-Aug-18 05:00N 34°41' E 135°11'2 5.0
2017-Aug-18 04:31N 34°38' E 135°11'4 7.5
2017-Aug-18 04:00N 34°37' E 135°07'5 9.2
2017-Aug-18 03:30N 34°38' E 135°12'3 6.4
2017-Aug-18 02:59N 34°41' E 135°11'0 0.0
2017-Aug-18 02:23N 34°41' E 135°11'0 0.0
2017-Aug-18 01:59N 34°41' E 135°11'0 0.0
2017-Aug-18 01:29N 34°41' E 135°11'0 0.0
2017-Aug-18 00:59N 34°41' E 135°11'0 0.0
2017-Aug-18 00:29N 34°41' E 135°11'0 0.0
2017-Aug-17 23:59N 34°41' E 135°11'0 0.0
2017-Aug-17 23:29N 34°41' E 135°11'0 0.0
2017-Aug-17 22:47N 34°41' E 135°11'0 0.0
2017-Aug-17 22:29N 34°41' E 135°11'0 0.0
2017-Aug-17 21:59N 34°41' E 135°11'0 0.0
2017-Aug-17 21:30N 34°41' E 135°11'0 0.0
2017-Aug-17 21:00N 34°41' E 135°11'0 0.0
2017-Aug-17 20:30N 34°41' E 135°11'0 0.0
2017-Aug-17 20:00N 34°41' E 135°11'0 0.0
2017-Aug-17 19:30N 34°41' E 135°11'0 0.0
2017-Aug-17 19:00N 34°41' E 135°11'0 0.0
2017-Aug-17 18:30N 34°41' E 135°11'0 0.0
2017-Aug-17 18:00N 34°41' E 135°11'0 0.0
2017-Aug-17 17:30N 34°41' E 135°11'0 0.0
2017-Aug-17 17:00N 34°41' E 135°11'0 0.0
2017-Aug-17 16:30N 34°41' E 135°11'0 0.0
2017-Aug-17 16:00N 34°41' E 135°11'0 0.0
2017-Aug-17 15:30N 34°41' E 135°11'0 0.0
2017-Aug-17 15:00N 34°41' E 135°11'0 0.0
2017-Aug-17 14:30N 34°41' E 135°11'0 0.0
2017-Aug-17 14:00N 34°41' E 135°11'0 0.0
2017-Aug-17 13:30N 34°41' E 135°11'0 0.0
2017-Aug-17 13:00N 34°41' E 135°11'0 0.0
2017-Aug-17 12:30N 34°41' E 135°11'1 2.5
2017-Aug-17 12:00N 34°40' E 135°11'611.4
2017-Aug-17 11:30N 34°36' E 135°06'612.9
2017-Aug-17 11:00N 34°37' E 134°59'714.2
2017-Aug-17 10:30N 34°37' E 135°08'5 9.3
2017-Aug-17 10:00N 34°41' E 135°11'0 0.0
2017-Aug-17 09:30N 34°41' E 135°11'1 2.7
2017-Aug-17 09:00N 34°39' E 135°11'4 8.2
2017-Aug-17 08:30N 34°37' E 135°07'5 9.8
2017-Aug-17 08:00N 34°41' E 135°11'0 0.0
2017-Aug-17 07:30N 34°41' E 135°11'0 0.0
2017-Aug-17 07:00N 34°41' E 135°11'0 0.0
2017-Aug-17 06:30N 34°41' E 135°11'0 0.0
2017-Aug-17 06:00N 34°41' E 135°11'0 0.0
2017-Aug-17 05:29N 34°41' E 135°11'0 0.0
2017-Aug-17 05:00N 34°41' E 135°11'3 5.3
2017-Aug-17 04:30N 34°38' E 135°10'3 6.5
2017-Aug-17 04:00N 34°36' E 135°07'4 8.6
2017-Aug-17 03:30N 34°38' E 135°12'3 6.8
2017-Aug-17 03:00N 34°41' E 135°11'0 0.0
2017-Aug-17 02:30N 34°41' E 135°11'0 0.0
2017-Aug-17 02:00N 34°41' E 135°11'0 0.0
2017-Aug-17 01:30N 34°41' E 135°11'0 0.0
2017-Aug-17 01:00N 34°41' E 135°11'0 0.0
2017-Aug-17 00:30N 34°41' E 135°11'0 0.0
2017-Aug-17 00:00N 34°41' E 135°11'0 0.0
2017-Aug-16 23:30N 34°41' E 135°11'0 0.0
2017-Aug-16 23:00N 34°41' E 135°11'0 0.0
2017-Aug-16 22:30N 34°41' E 135°11'0 0.0
2017-Aug-16 22:00N 34°41' E 135°11'0 0.0
2017-Aug-16 21:30N 34°41' E 135°11'0 0.0
2017-Aug-16 21:00N 34°41' E 135°11'0 0.0
2017-Aug-16 20:30N 34°41' E 135°11'0 0.0
2017-Aug-16 20:00N 34°41' E 135°11'0 0.0
2017-Aug-16 19:30N 34°41' E 135°11'0 0.0
2017-Aug-16 19:00N 34°41' E 135°11'0 0.0
2017-Aug-16 18:30N 34°41' E 135°11'0 0.0
2017-Aug-16 18:00N 34°41' E 135°11'0 0.0
2017-Aug-16 17:29N 34°41' E 135°11'0 0.0
2017-Aug-16 17:00N 34°41' E 135°11'0 0.0
2017-Aug-16 16:30N 34°41' E 135°11'0 0.0
2017-Aug-16 16:00N 34°41' E 135°11'0 0.0
2017-Aug-16 15:30N 34°41' E 135°11'0 0.0
2017-Aug-16 15:00N 34°41' E 135°11'0 0.0
2017-Aug-16 14:30N 34°41' E 135°11'0 0.0
2017-Aug-16 14:00N 34°41' E 135°11'0 0.0
2017-Aug-16 13:30N 34°41' E 135°11'0 0.0
2017-Aug-16 13:00N 34°41' E 135°11'0 0.0
2017-Aug-16 12:30N 34°41' E 135°11'1 2.8
2017-Aug-16 12:00N 34°39' E 135°11'611.3
2017-Aug-16 11:30N 34°36' E 135°06'612.2
2017-Aug-16 11:00N 34°38' E 134°59'612.9
2017-Aug-16 10:30N 34°37' E 135°07'510.2
2017-Aug-16 10:00N 34°41' E 135°11'0 0.0
2017-Aug-16 09:30N 34°41' E 135°11'1 2.3
2017-Aug-16 09:00N 34°40' E 135°12'4 8.5
2017-Aug-16 08:30N 34°37' E 135°07'5 9.6
2017-Aug-16 08:00N 34°41' E 135°11'0 0.0
2017-Aug-16 07:31N 34°41' E 135°11'0 0.0
2017-Aug-16 06:41N 34°41' E 135°11'0 0.0
2017-Aug-16 06:29N 34°41' E 135°11'0 0.0
2017-Aug-16 05:59N 34°41' E 135°11'0 0.0
2017-Aug-16 05:29N 34°41' E 135°11'0 0.0
2017-Aug-16 05:00N 34°41' E 135°11'3 5.3
2017-Aug-16 04:30N 34°38' E 135°11'4 7.0
2017-Aug-16 04:00N 34°37' E 135°07'5 9.9
2017-Aug-16 03:31N 34°38' E 135°12'3 6.7
2017-Aug-16 03:00N 34°41' E 135°11'0 0.0
2017-Aug-16 02:26N 34°41' E 135°11'0 0.0
2017-Aug-16 01:56N 34°41' E 135°11'0 0.0
2017-Aug-16 01:02N 34°41' E 135°11'0 0.0
2017-Aug-16 00:56N 34°41' E 135°11'0 0.0
2017-Aug-16 00:26N 34°41' E 135°11'0 0.0
2017-Aug-15 23:56N 34°41' E 135°11'0 0.0
2017-Aug-15 23:20N 34°41' E 135°11'0 0.0
2017-Aug-15 22:38N 34°41' E 135°11'0 0.0
2017-Aug-15 22:20N 34°41' E 135°11'0 0.0
2017-Aug-15 21:56N 34°41' E 135°11'0 0.0
2017-Aug-15 21:26N 34°41' E 135°11'0 0.0
2017-Aug-15 20:56N 34°41' E 135°11'0 0.0
2017-Aug-15 20:26N 34°41' E 135°11'0 0.0
2017-Aug-15 19:56N 34°41' E 135°11'0 0.0
2017-Aug-15 19:26N 34°41' E 135°11'0 0.0
2017-Aug-15 18:56N 34°41' E 135°11'0 0.0
2017-Aug-15 18:26N 34°41' E 135°11'0 0.0
2017-Aug-15 17:56N 34°41' E 135°11'0 0.0
2017-Aug-15 17:26N 34°41' E 135°11'0 0.0
2017-Aug-15 16:56N 34°41' E 135°11'0 0.0
2017-Aug-15 16:20N 34°41' E 135°11'0 0.0
2017-Aug-15 15:56N 34°41' E 135°11'0 0.0
2017-Aug-15 15:26N 34°41' E 135°11'0 0.0
2017-Aug-15 14:50N 34°41' E 135°11'0 0.0
2017-Aug-15 14:20N 34°41' E 135°11'0 0.0
2017-Aug-15 13:56N 34°41' E 135°11'0 0.0
2017-Aug-15 13:26N 34°41' E 135°11'0 0.0
2017-Aug-15 12:56N 34°41' E 135°11'0 0.0
2017-Aug-15 12:30N 34°41' E 135°11'1 2.8
2017-Aug-15 12:00N 34°39' E 135°11'612.1
2017-Aug-15 11:30N 34°35' E 135°06'510.8
2017-Aug-15 11:00N 34°37' E 134°60'612.8
2017-Aug-15 10:30N 34°37' E 135°07'510.0
2017-Aug-15 10:00N 34°41' E 135°11'0 0.0
2017-Aug-15 09:30N 34°41' E 135°11'1 2.3
2017-Aug-15 09:00N 34°40' E 135°12'4 8.2
2017-Aug-15 08:30N 34°37' E 135°07'5 9.4
2017-Aug-15 08:00N 34°41' E 135°11'0 0.0
2017-Aug-15 07:30N 34°41' E 135°11'0 0.0
2017-Aug-15 07:00N 34°41' E 135°11'0 0.0
2017-Aug-15 06:30N 34°41' E 135°11'0 0.0
2017-Aug-15 06:00N 34°41' E 135°11'0 0.0
2017-Aug-15 05:30N 34°41' E 135°11'0 0.0
2017-Aug-15 05:00N 34°41' E 135°11'3 5.9
2017-Aug-15 04:30N 34°38' E 135°10'3 6.4
2017-Aug-15 04:00N 34°36' E 135°07'5 9.0
2017-Aug-15 03:30N 34°38' E 135°12'3 6.6
2017-Aug-15 02:59N 34°41' E 135°11'0 0.0
2017-Aug-15 02:29N 34°41' E 135°11'0 0.0
2017-Aug-15 01:53N 34°41' E 135°11'0 0.0
2017-Aug-15 01:30N 34°41' E 135°11'0 0.0
2017-Aug-15 01:00N 34°41' E 135°11'0 0.0
2017-Aug-15 00:30N 34°41' E 135°11'0 0.0
2017-Aug-15 00:00N 34°41' E 135°11'0 0.0
2017-Aug-14 23:30N 34°41' E 135°11'0 0.0
2017-Aug-14 23:00N 34°41' E 135°11'0 0.0
2017-Aug-14 22:30N 34°41' E 135°11'0 0.0
2017-Aug-14 22:00N 34°41' E 135°11'0 0.0
2017-Aug-14 21:30N 34°41' E 135°11'0 0.0
2017-Aug-14 21:00N 34°41' E 135°11'0 0.0
2017-Aug-14 20:30N 34°41' E 135°11'0 0.0
2017-Aug-14 20:00N 34°41' E 135°11'0 0.0
2017-Aug-14 19:30N 34°41' E 135°11'0 0.0
2017-Aug-14 19:00N 34°41' E 135°11'0 0.0
2017-Aug-14 18:30N 34°41' E 135°11'0 0.0
2017-Aug-14 18:00N 34°41' E 135°11'0 0.0
2017-Aug-14 17:30N 34°41' E 135°11'0 0.0
2017-Aug-14 17:00N 34°41' E 135°11'0 0.0
2017-Aug-14 16:30N 34°41' E 135°11'0 0.0
2017-Aug-14 16:00N 34°41' E 135°11'0 0.0
2017-Aug-14 15:30N 34°41' E 135°11'0 0.0
2017-Aug-14 15:00N 34°41' E 135°11'0 0.0
2017-Aug-14 14:30N 34°41' E 135°11'0 0.0
2017-Aug-14 14:00N 34°41' E 135°11'0 0.0
2017-Aug-14 13:30N 34°41' E 135°11'0 0.0
2017-Aug-14 13:00N 34°41' E 135°11'0 0.0
2017-Aug-14 12:30N 34°41' E 135°11'2 4.3
2017-Aug-14 12:00N 34°39' E 135°11'611.1
2017-Aug-14 11:31N 34°35' E 135°06'510.6
2017-Aug-14 11:01N 34°37' E 135°00'612.4
2017-Aug-14 10:30N 34°37' E 135°08'5 9.3
2017-Aug-14 10:00N 34°41' E 135°11'0 0.0
2017-Aug-14 09:30N 34°41' E 135°11'1 2.5
2017-Aug-14 09:00N 34°40' E 135°11'4 8.0
2017-Aug-14 08:31N 34°37' E 135°08'5 9.4
2017-Aug-14 08:00N 34°41' E 135°11'0 0.0
2017-Aug-14 07:17N 34°41' E 135°11'0 0.0
2017-Aug-14 06:59N 34°41' E 135°11'0 0.0
2017-Aug-14 06:23N 34°41' E 135°11'0 0.0
2017-Aug-14 05:59N 34°41' E 135°11'0 0.0
2017-Aug-14 05:29N 34°41' E 135°11'0 0.0
2017-Aug-14 05:00N 34°41' E 135°11'3 5.6
2017-Aug-14 04:30N 34°38' E 135°10'4 7.1
2017-Aug-14 04:00N 34°37' E 135°06'510.2
2017-Aug-14 03:30N 34°37' E 135°12'4 7.0
2017-Aug-14 03:00N 34°41' E 135°11'0 0.0
2017-Aug-14 02:30N 34°41' E 135°11'0 0.0
2017-Aug-14 02:00N 34°41' E 135°11'0 0.0
2017-Aug-14 01:30N 34°41' E 135°11'0 0.0
2017-Aug-14 01:00N 34°41' E 135°11'0 0.0
2017-Aug-14 00:30N 34°41' E 135°11'0 0.0
2017-Aug-14 00:00N 34°41' E 135°11'0 0.0
2017-Aug-13 23:30N 34°41' E 135°11'0 0.0
2017-Aug-13 23:00N 34°41' E 135°11'0 0.0
2017-Aug-13 22:30N 34°41' E 135°11'0 0.0
2017-Aug-13 22:00N 34°41' E 135°11'0 0.0
2017-Aug-13 21:30N 34°41' E 135°11'0 0.0
2017-Aug-13 21:00N 34°41' E 135°11'0 0.0
2017-Aug-13 20:30N 34°41' E 135°11'0 0.0
2017-Aug-13 20:00N 34°41' E 135°11'0 0.0
2017-Aug-13 19:30N 34°41' E 135°11'0 0.0
2017-Aug-13 19:00N 34°41' E 135°11'0 0.0
2017-Aug-13 18:30N 34°41' E 135°11'0 0.0
2017-Aug-13 18:00N 34°41' E 135°11'0 0.0
2017-Aug-13 17:30N 34°41' E 135°11'0 0.0
2017-Aug-13 17:00N 34°41' E 135°11'0 0.0
2017-Aug-13 16:30N 34°41' E 135°11'0 0.0
2017-Aug-13 16:00N 34°41' E 135°11'0 0.0
2017-Aug-13 15:30N 34°41' E 135°11'0 0.0
2017-Aug-13 15:00N 34°41' E 135°11'0 0.0
2017-Aug-13 14:30N 34°41' E 135°11'0 0.0
2017-Aug-13 14:00N 34°41' E 135°11'0 0.0
2017-Aug-13 13:30N 34°41' E 135°11'0 0.0
2017-Aug-13 13:00N 34°41' E 135°11'0 0.0
2017-Aug-13 12:30N 34°41' E 135°11'1 2.2
2017-Aug-13 12:00N 34°40' E 135°12'611.5
2017-Aug-13 11:30N 34°36' E 135°06'611.8
2017-Aug-13 11:00N 34°38' E 134°59'713.2
2017-Aug-13 10:30N 34°37' E 135°07'510.3
2017-Aug-13 10:00N 34°41' E 135°11'0 0.0
2017-Aug-13 09:26N 34°41' E 135°11'0 0.0
2017-Aug-13 09:00N 34°41' E 135°11'2 4.1
2017-Aug-13 08:30N 34°39' E 135°11'4 9.0
2017-Aug-13 08:00N 34°37' E 135°07'510.7
2017-Aug-13 07:30N 34°37' E 135°13'4 7.2
2017-Aug-13 07:00N 34°41' E 135°11'0 0.0
2017-Aug-13 06:30N 34°41' E 135°11'0 0.0
2017-Aug-13 06:00N 34°41' E 135°11'0 0.0
2017-Aug-13 05:30N 34°41' E 135°11'0 0.0
2017-Aug-13 05:00N 34°41' E 135°11'3 5.0
2017-Aug-13 04:30N 34°38' E 135°11'4 8.3
2017-Aug-13 04:00N 34°36' E 135°06'510.9
2017-Aug-13 03:31N 34°38' E 135°13'3 6.8
2017-Aug-13 03:01N 34°41' E 135°11'0 0.0
2017-Aug-13 02:30N 34°41' E 135°11'0 0.0
2017-Aug-13 02:01N 34°41' E 135°11'0 0.0
2017-Aug-13 01:31N 34°41' E 135°11'0 0.0
2017-Aug-13 01:00N 34°41' E 135°11'0 0.0
2017-Aug-13 00:30N 34°41' E 135°11'0 0.0
2017-Aug-13 00:01N 34°41' E 135°11'0 0.0
2017-Aug-12 23:31N 34°41' E 135°11'0 0.0
2017-Aug-12 23:01N 34°41' E 135°11'0 0.0
2017-Aug-12 22:31N 34°41' E 135°11'0 0.0
2017-Aug-12 22:01N 34°41' E 135°11'0 0.0
2017-Aug-12 21:30N 34°41' E 135°11'0 0.0
2017-Aug-12 21:01N 34°41' E 135°11'0 0.0
2017-Aug-12 20:31N 34°41' E 135°11'0 0.0
2017-Aug-12 20:00N 34°41' E 135°11'0 0.0
2017-Aug-12 19:31N 34°41' E 135°11'0 0.0
2017-Aug-12 19:01N 34°41' E 135°11'0 0.0
2017-Aug-12 18:31N 34°41' E 135°11'0 0.0
2017-Aug-12 18:01N 34°41' E 135°11'0 0.0
2017-Aug-12 17:30N 34°41' E 135°11'0 0.0
2017-Aug-12 17:01N 34°41' E 135°11'0 0.0
2017-Aug-12 16:31N 34°41' E 135°11'0 0.0
2017-Aug-12 16:00N 34°41' E 135°11'0 0.0
2017-Aug-12 15:30N 34°41' E 135°11'0 0.0
2017-Aug-12 15:00N 34°41' E 135°11'0 0.0
2017-Aug-12 14:30N 34°41' E 135°11'0 0.0
2017-Aug-12 14:00N 34°41' E 135°11'0 0.0
2017-Aug-12 13:30N 34°41' E 135°11'0 0.0
2017-Aug-12 13:01N 34°41' E 135°11'0 0.0
2017-Aug-12 12:30N 34°41' E 135°11'1 2.7
2017-Aug-12 12:01N 34°39' E 135°11'612.7
2017-Aug-12 11:30N 34°35' E 135°06'611.2
2017-Aug-12 11:00N 34°37' E 134°59'713.1
2017-Aug-12 10:30N 34°37' E 135°08'5 9.6
2017-Aug-12 10:00N 34°41' E 135°11'0 0.0
2017-Aug-12 09:25N 34°41' E 135°11'0 0.0
2017-Aug-12 09:00N 34°41' E 135°11'2 4.8
2017-Aug-12 08:30N 34°38' E 135°11'3 5.7
2017-Aug-12 08:00N 34°37' E 135°08'4 7.9
2017-Aug-12 07:30N 34°37' E 135°13'4 7.0
2017-Aug-12 07:00N 34°41' E 135°11'0 0.0
2017-Aug-12 06:30N 34°41' E 135°11'0 0.0
2017-Aug-12 05:52N 34°41' E 135°11'0 0.0
2017-Aug-12 05:28N 34°41' E 135°11'0 0.0
2017-Aug-12 05:00N 34°41' E 135°11'3 5.3
2017-Aug-12 04:30N 34°38' E 135°11'4 8.3
2017-Aug-12 04:00N 34°36' E 135°06'5 9.1
2017-Aug-12 03:30N 34°38' E 135°12'3 6.4
2017-Aug-12 03:00N 34°41' E 135°11'0 0.0
2017-Aug-12 02:31N 34°41' E 135°11'0 0.0
2017-Aug-12 01:51N 34°41' E 135°11'0 0.0
2017-Aug-12 01:27N 34°41' E 135°11'0 0.0
2017-Aug-12 00:57N 34°41' E 135°11'0 0.0
2017-Aug-12 00:27N 34°41' E 135°11'0 0.0
2017-Aug-11 23:57N 34°41' E 135°11'0 0.0
2017-Aug-11 23:27N 34°41' E 135°11'0 0.0
2017-Aug-11 22:57N 34°41' E 135°11'0 0.0
2017-Aug-11 22:21N 34°41' E 135°11'0 0.0
2017-Aug-11 21:57N 34°41' E 135°11'0 0.0
2017-Aug-11 21:27N 34°41' E 135°11'0 0.0
2017-Aug-11 20:57N 34°41' E 135°11'0 0.0
2017-Aug-11 20:27N 34°41' E 135°11'0 0.0
2017-Aug-11 19:57N 34°41' E 135°11'0 0.0
2017-Aug-11 19:27N 34°41' E 135°11'0 0.0
2017-Aug-11 18:57N 34°41' E 135°11'0 0.0
2017-Aug-11 18:27N 34°41' E 135°11'0 0.0
2017-Aug-11 17:57N 34°41' E 135°11'0 0.0
2017-Aug-11 17:27N 34°41' E 135°11'0 0.0
2017-Aug-11 16:57N 34°41' E 135°11'0 0.0
2017-Aug-11 16:27N 34°41' E 135°11'0 0.0
2017-Aug-11 15:57N 34°41' E 135°11'0 0.0
2017-Aug-11 15:27N 34°41' E 135°11'0 0.0
2017-Aug-11 14:57N 34°41' E 135°11'0 0.0
2017-Aug-11 13:57N 34°41' E 135°11'0 0.0
2017-Aug-11 13:27N 34°41' E 135°11'0 0.0
2017-Aug-11 12:57N 34°41' E 135°11'0 0.0
2017-Aug-11 12:30N 34°41' E 135°11'1 2.9
2017-Aug-11 12:00N 34°39' E 135°11'713.9
2017-Aug-11 11:30N 34°35' E 135°05'5 9.6
2017-Aug-11 10:57N 34°38' E 134°59'614.3
2017-Aug-11 10:30N 34°37' E 135°07'5 9.9
2017-Aug-11 10:00N 34°41' E 135°11'0 0.0
2017-Aug-11 09:27N 34°41' E 135°11'0 0.0
2017-Aug-11 09:00N 34°41' E 135°11'2 3.7
2017-Aug-11 08:30N 34°39' E 135°11'4 8.0
2017-Aug-11 08:00N 34°37' E 135°07'510.1
2017-Aug-11 07:30N 34°37' E 135°13'4 7.5
2017-Aug-11 07:00N 34°41' E 135°11'0 0.0
2017-Aug-11 06:30N 34°41' E 135°11'0 0.0
2017-Aug-11 05:54N 34°41' E 135°11'0 0.0
2017-Aug-11 05:30N 34°41' E 135°11'0 0.0
2017-Aug-11 05:00N 34°41' E 135°11'3 5.1
2017-Aug-11 04:30N 34°38' E 135°11'4 8.6
2017-Aug-11 04:00N 34°36' E 135°06'5 9.4
2017-Aug-11 03:29N 34°38' E 135°12'3 6.8
2017-Aug-11 03:00N 34°41' E 135°11'0 0.0
2017-Aug-11 02:13N 34°41' E 135°11'0 0.0
2017-Aug-11 01:49N 34°41' E 135°11'0 0.0
2017-Aug-11 01:19N 34°41' E 135°11'0 0.0
2017-Aug-11 01:01N 34°41' E 135°11'0 0.0
2017-Aug-11 00:30N 34°41' E 135°11'0 0.0
2017-Aug-11 00:00N 34°41' E 135°11'0 0.0
2017-Aug-10 23:31N 34°41' E 135°11'0 0.0
2017-Aug-10 23:00N 34°41' E 135°11'0 0.0
2017-Aug-10 22:31N 34°41' E 135°11'0 0.0
2017-Aug-10 22:01N 34°41' E 135°11'0 0.0
2017-Aug-10 21:31N 34°41' E 135°11'0 0.0
2017-Aug-10 21:00N 34°41' E 135°11'0 0.0
2017-Aug-10 20:30N 34°41' E 135°11'0 0.0
2017-Aug-10 20:01N 34°41' E 135°11'0 0.0
2017-Aug-10 19:31N 34°41' E 135°11'0 0.0
2017-Aug-10 19:01N 34°41' E 135°11'0 0.0
2017-Aug-10 18:30N 34°41' E 135°11'0 0.0
2017-Aug-10 18:01N 34°41' E 135°11'0 0.0
2017-Aug-10 17:31N 34°41' E 135°11'0 0.0
2017-Aug-10 17:01N 34°41' E 135°11'0 0.0
2017-Aug-10 16:31N 34°41' E 135°11'0 0.0
2017-Aug-10 16:00N 34°41' E 135°11'0 0.0
2017-Aug-10 15:31N 34°41' E 135°11'0 0.0
2017-Aug-10 15:01N 34°41' E 135°11'0 0.0
2017-Aug-10 14:30N 34°41' E 135°11'0 0.0
2017-Aug-10 14:00N 34°41' E 135°11'0 0.0
2017-Aug-10 13:31N 34°41' E 135°11'0 0.0
2017-Aug-10 13:01N 34°41' E 135°11'0 0.0
2017-Aug-10 12:31N 34°41' E 135°11'2 3.5
2017-Aug-10 12:00N 34°39' E 135°11'714.1
2017-Aug-10 11:31N 34°35' E 135°04'510.5
2017-Aug-10 11:00N 34°37' E 134°58'714.1
2017-Aug-10 10:30N 34°37' E 135°07'5 8.7
2017-Aug-10 09:55N 34°41' E 135°11'0 0.0
2017-Aug-10 09:25N 34°41' E 135°11'1 3.4
2017-Aug-10 09:00N 34°39' E 135°11'4 7.6
2017-Aug-10 08:30N 34°38' E 135°07'5 9.0
2017-Aug-10 08:00N 34°41' E 135°11'0 0.0
2017-Aug-10 07:18N 34°41' E 135°11'0 0.0
2017-Aug-10 07:00N 34°41' E 135°11'0 0.0
2017-Aug-10 06:24N 34°41' E 135°11'0 0.0
2017-Aug-10 06:00N 34°41' E 135°11'0 0.0
2017-Aug-10 05:30N 34°41' E 135°11'0 0.0
2017-Aug-10 05:00N 34°41' E 135°11'3 5.5
2017-Aug-10 04:30N 34°38' E 135°11'4 8.7
2017-Aug-10 04:00N 34°36' E 135°06'611.1
2017-Aug-10 03:30N 34°38' E 135°12'3 6.9
2017-Aug-10 03:00N 34°41' E 135°11'0 0.0
2017-Aug-10 02:30N 34°41' E 135°11'0 0.0
2017-Aug-10 02:00N 34°41' E 135°11'0 0.0
2017-Aug-10 01:30N 34°41' E 135°11'0 0.0
2017-Aug-10 01:00N 34°41' E 135°11'0 0.0
2017-Aug-10 00:30N 34°41' E 135°11'0 0.0
2017-Aug-10 00:00N 34°41' E 135°11'0 0.0
2017-Aug-09 23:30N 34°41' E 135°11'0 0.0
2017-Aug-09 23:00N 34°41' E 135°11'0 0.0
2017-Aug-09 22:30N 34°41' E 135°11'0 0.0
2017-Aug-09 22:00N 34°41' E 135°11'0 0.0
2017-Aug-09 21:30N 34°41' E 135°11'0 0.0
2017-Aug-09 21:00N 34°41' E 135°11'0 0.0
2017-Aug-09 20:30N 34°41' E 135°11'0 0.0
2017-Aug-09 20:00N 34°41' E 135°11'0 0.0
2017-Aug-09 19:30N 34°41' E 135°11'0 0.0
2017-Aug-09 19:00N 34°41' E 135°11'0 0.0
2017-Aug-09 18:30N 34°41' E 135°11'0 0.0
2017-Aug-09 18:00N 34°41' E 135°11'0 0.0
2017-Aug-09 17:30N 34°41' E 135°11'0 0.0
2017-Aug-09 17:00N 34°41' E 135°11'0 0.0
2017-Aug-09 16:30N 34°41' E 135°11'0 0.0
2017-Aug-09 16:00N 34°41' E 135°11'0 0.0
2017-Aug-09 15:30N 34°41' E 135°11'0 0.0
2017-Aug-09 15:00N 34°41' E 135°11'0 0.0
2017-Aug-09 14:30N 34°41' E 135°11'0 0.0
2017-Aug-09 14:00N 34°41' E 135°11'0 0.0
2017-Aug-09 13:30N 34°41' E 135°11'0 0.0
2017-Aug-09 13:00N 34°41' E 135°11'0 0.0
2017-Aug-09 12:30N 34°41' E 135°11'2 3.9
2017-Aug-09 12:00N 34°39' E 135°11'713.2
2017-Aug-09 11:30N 34°35' E 135°05'611.3
2017-Aug-09 11:00N 34°37' E 134°59'714.3
2017-Aug-09 10:30N 34°37' E 135°07'510.1
2017-Aug-09 10:00N 34°41' E 135°11'0 0.0
2017-Aug-09 09:30N 34°41' E 135°11'1 2.4
2017-Aug-09 09:01N 34°40' E 135°12'4 8.3
2017-Aug-09 08:30N 34°37' E 135°07'5 9.6
2017-Aug-09 08:00N 34°41' E 135°11'0 0.0
2017-Aug-09 07:30N 34°41' E 135°11'0 0.0
2017-Aug-09 07:00N 34°41' E 135°11'0 0.0
2017-Aug-09 06:30N 34°41' E 135°11'0 0.0
2017-Aug-09 06:00N 34°41' E 135°11'0 0.0
2017-Aug-09 05:30N 34°41' E 135°11'0 0.0
2017-Aug-09 05:00N 34°41' E 135°11'3 6.0
2017-Aug-09 04:30N 34°38' E 135°10'3 6.3
2017-Aug-09 04:00N 34°37' E 135°07'4 8.3
2017-Aug-09 03:30N 34°38' E 135°12'3 6.5
2017-Aug-09 03:00N 34°41' E 135°11'0 0.0
2017-Aug-09 02:30N 34°41' E 135°11'0 0.0
2017-Aug-09 02:00N 34°41' E 135°11'0 0.0
2017-Aug-09 01:30N 34°41' E 135°11'  

Dump ship's entire track history